Terminal Aerodrome Forecast
Issued by NWS

Home | Current Version | Previous Version | Text Only | Print | Product List | Glossary On
Versions: 1 2 3 4 5 6 7 8 9 10 11 12 13
852
FTUS45 KTFX 110520
TAFBZN
TAF
KBZN 110520Z 1106/1206 VRB06KT P6SM BKN120
     FM111800 25008KT P6SM SCT070 BKN100
     FM120100 VRB06KT P6SM BKN070=

USA.gov is the U.S. government's official web portal to all federal, state and local government web resources and services.